createdAt,value
2019-01-23T00:00:34.922Z,-4.60
2019-01-23T00:03:03.471Z,-4.60
2019-01-23T00:05:31.933Z,-4.60
2019-01-23T00:08:00.486Z,-4.60
2019-01-23T00:10:28.929Z,-4.70
2019-01-23T00:12:57.410Z,-4.70
2019-01-23T00:15:25.863Z,-4.60
2019-01-23T00:17:54.390Z,-4.60
2019-01-23T00:20:22.840Z,-4.60
2019-01-23T00:22:51.321Z,-4.60
2019-01-23T00:25:19.852Z,-4.60
2019-01-23T00:27:48.335Z,-4.60
2019-01-23T00:30:16.946Z,-4.60
2019-01-23T00:32:45.418Z,-4.50
2019-01-23T00:35:13.875Z,-4.50
2019-01-23T00:37:42.354Z,-4.40
2019-01-23T00:40:15.757Z,-4.50
2019-01-23T00:42:44.473Z,-4.40
2019-01-23T00:45:14.887Z,-4.50
2019-01-23T00:47:43.340Z,-4.50
2019-01-23T00:50:13.425Z,-4.40
2019-01-23T00:52:41.927Z,-4.40
2019-01-23T00:55:17.542Z,-4.40
2019-01-23T00:57:46.111Z,-4.50
2019-01-23T01:00:17.654Z,-4.50
2019-01-23T01:02:46.202Z,-4.50
2019-01-23T01:05:15.938Z,-4.50
2019-01-23T01:07:44.563Z,-4.50
2019-01-23T01:10:15.462Z,-4.60
2019-01-23T01:12:44.185Z,-4.60
2019-01-23T01:15:13.431Z,-4.70
2019-01-23T01:17:42.210Z,-4.60
2019-01-23T01:20:12.811Z,-4.60
2019-01-23T01:22:41.257Z,-4.60
2019-01-23T01:25:12.286Z,-4.60
2019-01-23T01:27:40.741Z,-4.60
2019-01-23T01:30:14.883Z,-4.60
2019-01-23T01:32:43.402Z,-4.60
2019-01-23T01:35:11.877Z,-4.60
2019-01-23T01:37:40.323Z,-4.50
2019-01-23T01:40:12.570Z,-4.60
2019-01-23T01:42:41.228Z,-4.60
2019-01-23T01:45:12.046Z,-4.60
2019-01-23T01:47:40.500Z,-4.60
2019-01-23T01:50:14.213Z,-4.60
2019-01-23T01:52:42.672Z,-4.70
2019-01-23T01:55:11.205Z,-4.70
2019-01-23T01:57:39.674Z,-4.70
2019-01-23T02:00:11.227Z,-4.60
2019-01-23T02:02:39.686Z,-4.60
2019-01-23T02:05:08.492Z,-4.60
2019-01-23T02:07:36.926Z,-4.60
2019-01-23T02:10:08.802Z,-4.50
2019-01-23T02:12:37.242Z,-4.60
2019-01-23T02:15:08.224Z,-4.60
2019-01-23T02:17:36.675Z,-4.60
2019-01-23T02:20:08.215Z,-4.60
2019-01-23T02:22:36.680Z,-4.60
2019-01-23T02:25:06.652Z,-4.60
2019-01-23T02:27:35.097Z,-4.60
2019-01-23T02:30:05.426Z,-4.60
2019-01-23T02:32:33.871Z,-4.60
2019-01-23T02:35:02.363Z,-4.60
2019-01-23T02:37:30.896Z,-4.60
2019-01-23T02:39:59.419Z,-4.60
2019-01-23T02:42:27.857Z,-4.50
2019-01-23T02:44:56.325Z,-4.60
2019-01-23T02:47:24.792Z,-4.60
2019-01-23T02:49:53.257Z,-4.60
2019-01-23T02:52:21.715Z,-4.60
2019-01-23T02:54:50.185Z,-4.60
2019-01-23T02:57:18.637Z,-4.70
2019-01-23T02:59:47.107Z,-4.70
2019-01-23T03:02:15.565Z,-4.70
2019-01-23T03:04:44.571Z,-4.70
2019-01-23T03:07:13.036Z,-4.70
2019-01-23T03:09:41.502Z,-4.70
2019-01-23T03:12:09.958Z,-4.70
2019-01-23T03:14:38.419Z,-4.70
2019-01-23T03:17:06.897Z,-4.70
2019-01-23T03:19:35.545Z,-4.70
2019-01-23T03:22:04.168Z,-4.70
2019-01-23T03:24:32.706Z,-4.70
2019-01-23T03:27:01.151Z,-4.80
2019-01-23T03:29:29.632Z,-4.80
2019-01-23T03:31:58.095Z,-4.80
2019-01-23T03:34:26.550Z,-4.80
2019-01-23T03:36:54.987Z,-4.80
2019-01-23T03:39:23.477Z,-4.80
2019-01-23T03:41:51.948Z,-4.80
2019-01-23T03:44:20.430Z,-4.80
2019-01-23T03:46:48.871Z,-4.90
2019-01-23T03:49:17.334Z,-4.90
2019-01-23T03:51:45.780Z,-5.00
2019-01-23T03:54:14.251Z,-4.90
2019-01-23T03:56:42.695Z,-5.00
2019-01-23T03:59:11.237Z,-4.90
2019-01-23T04:01:39.689Z,-5.00
2019-01-23T04:04:08.166Z,-5.00
2019-01-23T04:06:36.615Z,-5.00
2019-01-23T04:09:07.023Z,-5.00
2019-01-23T04:11:35.567Z,-5.00
2019-01-23T04:14:04.236Z,-5.00
2019-01-23T04:16:32.700Z,-5.00
2019-01-23T04:19:01.239Z,-5.10
2019-01-23T04:21:29.750Z,-5.20
2019-01-23T04:23:58.201Z,-5.30
2019-01-23T04:26:26.663Z,-5.40
2019-01-23T04:28:55.121Z,-5.50
2019-01-23T04:31:23.570Z,-5.50
2019-01-23T04:33:52.023Z,-5.60
2019-01-23T04:36:20.552Z,-5.60
2019-01-23T04:38:48.997Z,-5.50
2019-01-23T04:41:17.466Z,-5.50
2019-01-23T04:43:45.982Z,-5.40
2019-01-23T04:46:14.446Z,-5.40
2019-01-23T04:48:42.907Z,-5.40
2019-01-23T04:51:15.877Z,-5.30
2019-01-23T04:53:45.612Z,-5.30
2019-01-23T04:56:14.123Z,-5.30
2019-01-23T04:58:42.574Z,-5.30
2019-01-23T05:01:11.051Z,-5.30
2019-01-23T05:03:39.569Z,-5.30
2019-01-23T05:06:08.086Z,-5.20
2019-01-23T05:08:36.542Z,-5.10
2019-01-23T05:11:05.023Z,-5.20
2019-01-23T05:13:33.486Z,-5.20
2019-01-23T05:16:02.029Z,-5.30
2019-01-23T05:18:30.468Z,-5.30
2019-01-23T05:20:58.929Z,-5.20
2019-01-23T05:23:27.385Z,-5.20
2019-01-23T05:25:55.889Z,-5.20
2019-01-23T05:28:24.373Z,-5.30
2019-01-23T05:30:52.914Z,-5.30
2019-01-23T05:33:21.447Z,-5.40
2019-01-23T05:35:50.850Z,-5.40
2019-01-23T05:38:19.287Z,-5.40
2019-01-23T05:40:47.740Z,-5.40
2019-01-23T05:43:16.191Z,-5.40
2019-01-23T05:45:44.668Z,-5.40
2019-01-23T05:48:13.109Z,-5.50
2019-01-23T05:50:41.556Z,-5.40
2019-01-23T05:53:10.012Z,-5.30
2019-01-23T05:55:38.550Z,-5.30
2019-01-23T05:58:07.020Z,-5.30
2019-01-23T06:00:35.555Z,-5.30
2019-01-23T06:03:04.087Z,-5.30
2019-01-23T06:05:32.617Z,-5.30
2019-01-23T06:08:01.098Z,-5.40
2019-01-23T06:10:29.579Z,-5.30
2019-01-23T06:12:58.114Z,-5.30
2019-01-23T06:15:26.586Z,-5.20
2019-01-23T06:17:55.142Z,-5.20
2019-01-23T06:20:23.612Z,-5.20
2019-01-23T06:22:52.070Z,-5.20
2019-01-23T06:25:20.604Z,-5.20
2019-01-23T06:27:49.065Z,-5.30
2019-01-23T06:30:25.131Z,-5.30
2019-01-23T06:32:53.576Z,-5.40
2019-01-23T06:35:22.113Z,-5.30
2019-01-23T06:37:50.648Z,-5.50
2019-01-23T06:40:19.669Z,-5.40
2019-01-23T06:42:48.182Z,-5.50
2019-01-23T06:45:18.201Z,-5.40
2019-01-23T06:47:47.609Z,-5.40
2019-01-23T06:50:18.448Z,-5.40
2019-01-23T06:52:47.013Z,-5.40
2019-01-23T06:55:15.465Z,-5.40
2019-01-23T06:57:43.941Z,-5.40
2019-01-23T07:00:17.645Z,-5.30
2019-01-23T07:02:46.901Z,-5.30
2019-01-23T07:05:15.890Z,-5.30
2019-01-23T07:07:44.349Z,-5.20
2019-01-23T07:10:21.043Z,-5.20
2019-01-23T07:12:49.508Z,-5.10
2019-01-23T07:15:18.292Z,-5.10
2019-01-23T07:17:46.794Z,-5.10
2019-01-23T07:20:20.341Z,-5.00
2019-01-23T07:22:48.894Z,-5.10
2019-01-23T07:25:17.691Z,-4.90
2019-01-23T07:27:46.218Z,-4.90
2019-01-23T07:30:23.991Z,-4.90
2019-01-23T07:32:47.946Z,-4.90
2019-01-23T07:35:16.401Z,-4.90
2019-01-23T07:37:44.896Z,-4.80
2019-01-23T07:40:13.543Z,-4.80
2019-01-23T07:42:42.026Z,-4.80
2019-01-23T07:45:18.674Z,-4.80
2019-01-23T07:47:47.152Z,-4.70
2019-01-23T07:50:15.838Z,-4.70
2019-01-23T07:52:44.394Z,-4.70
2019-01-23T07:55:17.639Z,-4.60
2019-01-23T07:57:46.111Z,-4.70
2019-01-23T08:00:16.959Z,-4.00
2019-01-23T08:02:45.510Z,-4.60
2019-01-23T08:05:19.544Z,-4.60
2019-01-23T08:07:47.575Z,-4.70
2019-01-23T08:10:17.888Z,-4.70
2019-01-23T08:12:46.686Z,-4.70
2019-01-23T08:15:18.239Z,-4.70
2019-01-23T08:17:46.879Z,-4.70
2019-01-23T08:20:18.040Z,-4.70
2019-01-23T08:22:46.574Z,-4.60
2019-01-23T08:25:15.364Z,-4.60
2019-01-23T08:27:43.946Z,-4.60
2019-01-23T08:30:15.594Z,-4.60
2019-01-23T08:32:44.074Z,-4.50
2019-01-23T08:35:12.877Z,-4.50
2019-01-23T08:37:41.370Z,-4.40
2019-01-23T08:40:12.571Z,-4.40
2019-01-23T08:42:41.238Z,-4.50
2019-01-23T08:45:11.291Z,-4.50
2019-01-23T08:47:39.769Z,-4.50
2019-01-23T08:50:11.299Z,-4.40
2019-01-23T08:52:39.778Z,-4.40
2019-01-23T08:55:08.369Z,-4.30
2019-01-23T08:57:36.846Z,-4.30
2019-01-23T09:00:11.255Z,-4.20
2019-01-23T09:02:39.717Z,-4.20
2019-01-23T09:05:09.686Z,-4.10
2019-01-23T09:07:38.197Z,-4.10
2019-01-23T09:10:18.419Z,-4.10
2019-01-23T09:12:46.972Z,-4.00
2019-01-23T09:15:16.764Z,-3.90
2019-01-23T09:17:45.245Z,-3.80
2019-01-23T09:20:18.388Z,-3.80
2019-01-23T09:22:46.872Z,-3.70
2019-01-23T09:25:17.261Z,-3.70
2019-01-23T09:27:45.762Z,-3.70
2019-01-23T09:30:20.064Z,-3.80
2019-01-23T09:32:54.484Z,-3.90
2019-01-23T09:35:28.979Z,-3.90
2019-01-23T09:38:00.565Z,-4.00
2019-01-23T09:40:32.087Z,-4.00
2019-01-23T09:43:15.491Z,-4.00
2019-01-23T09:45:58.883Z,-3.90
2019-01-23T09:48:36.230Z,-4.10
2019-01-23T09:51:25.643Z,-3.60
2019-01-23T09:53:57.247Z,-3.60
2019-01-23T09:56:25.808Z,-3.50
2019-01-23T09:58:54.347Z,-3.50
2019-01-23T10:01:22.937Z,-3.60
2019-01-23T10:03:51.412Z,-3.60
2019-01-23T10:06:19.871Z,-3.60
2019-01-23T10:08:48.406Z,-3.50
2019-01-23T10:11:16.867Z,-3.40
2019-01-23T10:13:45.349Z,-3.30
2019-01-23T10:16:13.827Z,-3.30
2019-01-23T10:18:42.360Z,-3.30
2019-01-23T10:21:10.881Z,-3.30
2019-01-23T10:23:39.377Z,-3.20
2019-01-23T10:26:07.817Z,-3.20
2019-01-23T10:28:36.296Z,-3.20
2019-01-23T10:31:06.828Z,-3.20
2019-01-23T10:33:34.973Z,-3.40
2019-01-23T10:36:03.527Z,-3.50
2019-01-23T10:38:32.000Z,-3.60
2019-01-23T10:41:01.122Z,-3.60
2019-01-23T10:43:29.595Z,-3.70
2019-01-23T10:45:58.077Z,-3.90
2019-01-23T10:48:26.531Z,-3.90
2019-01-23T10:50:54.994Z,-4.00
2019-01-23T10:53:23.469Z,-4.00
2019-01-23T10:55:51.956Z,-4.00
2019-01-23T10:58:20.427Z,-4.00
2019-01-23T11:00:48.912Z,-3.90
2019-01-23T11:03:17.367Z,-4.00
2019-01-23T11:05:45.848Z,-4.00
2019-01-23T11:08:14.313Z,-4.00
2019-01-23T11:10:42.854Z,-4.00
2019-01-23T11:13:11.330Z,-3.90
2019-01-23T11:15:39.865Z,-3.90
2019-01-23T11:18:08.374Z,-4.00
2019-01-23T11:20:36.857Z,-3.90
2019-01-23T11:23:05.315Z,-3.90
2019-01-23T11:25:33.859Z,-3.90
2019-01-23T11:28:02.338Z,-3.90
2019-01-23T11:30:30.883Z,-3.80
2019-01-23T11:32:59.345Z,-3.70
2019-01-23T11:35:27.826Z,-3.60
2019-01-23T11:37:56.346Z,-3.60
2019-01-23T11:40:28.019Z,-3.60
2019-01-23T11:42:56.458Z,-3.70
2019-01-23T11:45:24.948Z,-3.90
2019-01-23T11:47:53.485Z,-4.00
2019-01-23T11:50:23.229Z,-4.00
2019-01-23T11:52:52.061Z,-4.20
2019-01-23T11:55:20.546Z,-4.30
2019-01-23T11:57:48.984Z,-4.30
2019-01-23T12:00:22.629Z,-4.30
2019-01-23T12:02:51.095Z,-4.30
2019-01-23T12:05:21.369Z,-4.30
2019-01-23T12:07:50.269Z,-4.20
2019-01-23T12:10:23.465Z,-4.10
2019-01-23T12:12:52.466Z,-4.20
2019-01-23T12:15:22.784Z,-4.20
2019-01-23T12:17:51.329Z,-4.40
2019-01-23T12:20:20.341Z,-4.40
2019-01-23T12:22:48.969Z,-4.30
2019-01-23T12:25:17.449Z,-4.20
2019-01-23T12:27:45.993Z,-4.10
2019-01-23T12:30:20.126Z,-3.90
2019-01-23T12:32:48.595Z,-3.90
2019-01-23T12:35:17.244Z,-3.80
2019-01-23T12:37:45.706Z,-3.80
2019-01-23T12:40:15.935Z,-3.80
2019-01-23T12:42:44.557Z,-3.80
2019-01-23T12:45:21.887Z,-3.80
2019-01-23T12:47:50.411Z,-3.80
2019-01-23T12:50:21.824Z,-3.70
2019-01-23T12:52:50.285Z,-3.70
2019-01-23T12:55:18.745Z,-3.70
2019-01-23T12:57:47.270Z,-3.80
2019-01-23T13:00:21.426Z,-3.80
2019-01-23T13:02:50.063Z,-3.90
2019-01-23T13:05:20.128Z,-3.90
2019-01-23T13:07:48.593Z,-3.80
2019-01-23T13:10:19.559Z,-3.80
2019-01-23T13:12:48.340Z,-3.70
2019-01-23T13:15:21.417Z,-3.80
2019-01-23T13:17:49.932Z,-3.90
2019-01-23T13:20:20.592Z,-3.90
2019-01-23T13:22:49.071Z,-4.00
2019-01-23T13:25:25.514Z,-4.00
2019-01-23T13:27:54.302Z,-4.10
2019-01-23T13:30:24.977Z,-4.10
2019-01-23T13:32:53.522Z,-4.10
2019-01-23T13:35:26.973Z,-4.10
2019-01-23T13:37:55.645Z,-4.10
2019-01-23T13:40:27.052Z,-4.00
2019-01-23T13:42:55.617Z,-4.00
2019-01-23T13:45:24.152Z,-3.90
2019-01-23T13:47:52.737Z,-3.90
2019-01-23T13:50:21.178Z,-3.90
2019-01-23T13:52:49.739Z,-3.90
2019-01-23T13:55:22.837Z,-3.90
2019-01-23T13:57:51.305Z,-4.00
2019-01-23T14:00:29.008Z,-4.00
2019-01-23T14:02:57.564Z,-4.00
2019-01-23T14:05:26.078Z,-4.10
2019-01-23T14:07:54.571Z,-4.00
2019-01-23T14:10:23.020Z,-3.90
2019-01-23T14:12:51.552Z,-4.00
2019-01-23T14:15:34.638Z,-3.90
2019-01-23T14:18:03.226Z,-3.90
2019-01-23T14:20:31.678Z,-3.90
2019-01-23T14:23:00.142Z,-3.90
2019-01-23T14:25:28.615Z,-3.90
2019-01-23T14:27:57.065Z,-3.90
2019-01-23T14:30:30.498Z,-4.00
2019-01-23T14:32:58.973Z,-4.00
2019-01-23T14:35:27.968Z,-3.90
2019-01-23T14:38:00.590Z,-3.90
2019-01-23T14:40:26.770Z,-4.00
2019-01-23T14:42:55.239Z,-4.00
2019-01-23T14:45:23.751Z,-4.00
2019-01-23T14:47:52.290Z,-4.10
2019-01-23T14:50:21.590Z,-4.10
2019-01-23T14:52:50.131Z,-4.10
2019-01-23T14:55:18.665Z,-4.30
2019-01-23T14:57:47.333Z,-4.30
2019-01-23T15:00:24.784Z,-4.40
2019-01-23T15:02:53.332Z,-4.40
2019-01-23T15:05:21.835Z,-4.40
2019-01-23T15:07:50.331Z,-4.30
2019-01-23T15:10:27.167Z,-4.30
2019-01-23T15:12:55.627Z,-4.30
2019-01-23T15:15:24.170Z,-4.30
2019-01-23T15:17:53.199Z,-4.30
2019-01-23T15:20:24.698Z,-4.30
2019-01-23T15:22:53.182Z,-4.30
2019-01-23T15:25:21.643Z,-4.30
2019-01-23T15:27:50.135Z,-4.30
2019-01-23T15:30:20.836Z,-4.30
2019-01-23T15:32:49.476Z,-4.20
2019-01-23T15:35:19.295Z,-4.20
2019-01-23T15:37:47.862Z,-4.20
2019-01-23T15:40:30.766Z,-4.20
2019-01-23T15:42:59.230Z,-4.10
2019-01-23T15:45:27.674Z,-4.10
2019-01-23T15:47:56.439Z,-4.10
2019-01-23T15:50:26.535Z,-4.10
2019-01-23T15:52:55.242Z,-4.20
2019-01-23T15:55:25.651Z,-2.90
2019-01-23T15:57:54.290Z,-4.20
2019-01-23T16:00:32.678Z,-4.30
2019-01-23T16:03:01.143Z,-4.30
2019-01-23T16:05:29.667Z,-4.30
2019-01-23T16:07:58.794Z,-4.30
2019-01-23T16:10:28.817Z,-4.30
2019-01-23T16:12:57.340Z,-4.30
2019-01-23T16:15:27.511Z,-4.40
2019-01-23T16:17:57.452Z,-4.40
2019-01-23T16:20:26.409Z,-4.30
2019-01-23T16:22:54.947Z,-4.40
2019-01-23T16:25:23.412Z,-4.40
2019-01-23T16:27:51.868Z,-4.40
2019-01-23T16:30:34.218Z,-4.40
2019-01-23T16:33:02.802Z,-4.30
2019-01-23T16:35:38.327Z,-4.30
2019-01-23T16:38:01.564Z,-4.20
2019-01-23T16:40:29.999Z,-4.20
2019-01-23T16:42:58.539Z,-4.20
2019-01-23T16:45:27.203Z,-4.20
2019-01-23T16:47:55.709Z,-4.10
2019-01-23T16:50:26.642Z,-4.10
2019-01-23T16:52:55.167Z,-4.10
2019-01-23T16:55:23.923Z,-4.10
2019-01-23T16:57:53.249Z,-4.10
2019-01-23T17:00:24.186Z,-4.00
2019-01-23T17:02:53.339Z,-4.00
2019-01-23T17:05:30.056Z,-4.00
2019-01-23T17:08:00.102Z,-3.90
2019-01-23T17:10:29.222Z,-4.00
2019-01-23T17:12:58.039Z,-4.10
2019-01-23T17:15:26.800Z,-4.10
2019-01-23T17:17:55.268Z,-4.20
2019-01-23T17:20:30.156Z,-4.20
2019-01-23T17:22:58.639Z,-4.20
2019-01-23T17:25:27.175Z,-4.20
2019-01-23T17:27:55.630Z,-4.10
2019-01-23T17:30:24.529Z,-4.20
2019-01-23T17:32:53.120Z,-4.20
2019-01-23T17:35:22.018Z,-4.10
2019-01-23T17:37:50.505Z,-4.10
2019-01-23T17:40:21.041Z,-4.10
2019-01-23T17:42:49.500Z,-4.10
2019-01-23T17:45:26.556Z,-4.10
2019-01-23T17:47:55.006Z,-4.20
2019-01-23T17:50:24.540Z,-4.20
2019-01-23T17:52:53.200Z,-4.10
2019-01-23T17:55:24.751Z,-4.20
2019-01-23T17:57:53.334Z,-4.10
2019-01-23T18:00:25.839Z,-4.10
2019-01-23T18:02:54.677Z,-4.10
2019-01-23T18:05:23.493Z,-4.10
2019-01-23T18:07:51.948Z,-4.00
2019-01-23T18:10:20.441Z,-4.00
2019-01-23T18:12:49.055Z,-4.00
2019-01-23T18:15:20.132Z,-4.10
2019-01-23T18:17:48.595Z,-4.00
2019-01-23T18:20:19.306Z,-4.00
2019-01-23T18:22:47.754Z,-4.00
2019-01-23T18:25:17.171Z,-4.00
2019-01-23T18:27:46.061Z,-4.00
2019-01-23T18:30:29.208Z,-4.00
2019-01-23T18:33:00.128Z,-4.00
2019-01-23T18:35:33.848Z,-4.00
2019-01-23T18:38:11.080Z,-3.90
2019-01-23T18:41:07.777Z,-3.90
2019-01-23T18:43:47.864Z,-3.90
2019-01-23T18:46:45.072Z,-3.90
2019-01-23T18:49:22.555Z,-4.00
2019-01-23T18:52:12.529Z,-3.90
2019-01-23T18:54:41.825Z,-3.90
2019-01-23T18:57:22.704Z,-3.90
2019-01-23T18:59:51.267Z,-3.90
2019-01-23T19:02:19.758Z,-3.90
2019-01-23T19:04:48.214Z,-4.00
2019-01-23T19:07:16.687Z,-4.00
2019-01-23T19:09:45.128Z,-3.90
2019-01-23T19:12:13.637Z,-3.90
2019-01-23T19:14:42.078Z,-3.80
2019-01-23T19:17:10.550Z,-3.90
2019-01-23T19:19:38.990Z,-3.90
2019-01-23T19:22:07.465Z,-3.80
2019-01-23T19:24:35.910Z,-3.90
2019-01-23T19:27:04.632Z,-3.90
2019-01-23T19:29:33.141Z,-3.80
2019-01-23T19:32:01.630Z,-3.80
2019-01-23T19:34:30.085Z,-3.70
2019-01-23T19:36:58.548Z,-3.80
2019-01-23T19:39:26.998Z,-3.90
2019-01-23T19:41:55.456Z,-3.80
2019-01-23T19:44:23.904Z,-3.70
2019-01-23T19:46:52.425Z,-3.70
2019-01-23T19:49:21.011Z,-3.70
2019-01-23T19:51:49.623Z,-3.70
2019-01-23T19:54:18.122Z,-3.70
2019-01-23T19:56:46.672Z,-3.80
2019-01-23T19:59:15.150Z,-3.70
2019-01-23T20:01:43.609Z,-3.60
2019-01-23T20:04:12.112Z,-3.60
2019-01-23T20:06:40.631Z,-3.60
2019-01-23T20:09:10.515Z,-3.70
2019-01-23T20:11:38.989Z,-3.60
2019-01-23T20:14:07.584Z,-3.60
2019-01-23T20:16:36.053Z,-3.50
2019-01-23T20:19:06.345Z,-3.60
2019-01-23T20:21:34.835Z,-3.60
2019-01-23T20:24:03.394Z,-3.50
2019-01-23T20:26:31.888Z,-3.50
2019-01-23T20:29:00.414Z,-3.50
2019-01-23T20:31:28.882Z,-3.50
2019-01-23T20:33:57.440Z,-3.40
2019-01-23T20:36:25.895Z,-3.40
2019-01-23T20:38:54.369Z,-3.50
2019-01-23T20:41:22.816Z,-3.50
2019-01-23T20:43:51.461Z,-3.40
2019-01-23T20:46:20.094Z,-3.30
2019-01-23T20:48:48.568Z,-3.30
2019-01-23T20:51:17.074Z,-3.20
2019-01-23T20:53:45.556Z,-3.10
2019-01-23T20:56:13.996Z,-3.10
2019-01-23T20:58:42.446Z,-3.10
2019-01-23T21:01:10.894Z,-3.10
2019-01-23T21:03:39.363Z,-3.10
2019-01-23T21:06:07.814Z,-3.10
2019-01-23T21:08:36.283Z,-3.10
2019-01-23T21:11:05.276Z,-3.00
2019-01-23T21:13:33.753Z,-3.00
2019-01-23T21:16:02.254Z,-3.00
2019-01-23T21:18:30.716Z,-3.00
2019-01-23T21:20:59.190Z,-3.00
2019-01-23T21:23:27.662Z,-2.90
2019-01-23T21:25:56.354Z,-3.00
2019-01-23T21:28:24.848Z,-3.00
2019-01-23T21:30:53.295Z,-2.90
2019-01-23T21:33:21.760Z,-2.90
2019-01-23T21:35:50.278Z,-2.80
2019-01-23T21:38:18.824Z,-2.80
2019-01-23T21:40:47.264Z,-2.80
2019-01-23T21:43:15.809Z,-2.80
2019-01-23T21:45:44.281Z,-2.80
2019-01-23T21:48:12.731Z,-2.80
2019-01-23T21:50:41.196Z,-2.90
2019-01-23T21:53:09.731Z,-2.90
2019-01-23T21:55:38.186Z,-2.80
2019-01-23T21:58:06.740Z,-2.80
2019-01-23T22:00:38.272Z,-2.80
2019-01-23T22:03:08.534Z,-2.80
2019-01-23T22:05:36.968Z,-2.80
2019-01-23T22:08:05.754Z,-2.70
2019-01-23T22:10:34.213Z,-2.70
2019-01-23T22:13:02.677Z,-2.70
2019-01-23T22:15:32.765Z,-2.70
2019-01-23T22:18:01.246Z,-2.70
2019-01-23T22:20:29.711Z,-2.70
2019-01-23T22:22:58.157Z,-2.60
2019-01-23T22:25:26.645Z,-2.60
2019-01-23T22:27:55.427Z,-2.60
2019-01-23T22:30:26.351Z,-2.60
2019-01-23T22:32:54.862Z,-2.60
2019-01-23T22:35:23.416Z,-2.50
2019-01-23T22:37:51.923Z,-2.50
2019-01-23T22:40:20.735Z,-2.50
2019-01-23T22:42:49.170Z,-2.50
2019-01-23T22:45:19.311Z,-2.60
2019-01-23T22:47:47.782Z,-2.50
2019-01-23T22:50:21.087Z,-2.50
2019-01-23T22:52:49.885Z,-2.60
2019-01-23T22:55:18.401Z,-2.50
2019-01-23T22:57:46.850Z,-2.50
2019-01-23T23:00:21.099Z,-2.50
2019-01-23T23:02:49.579Z,-2.40
2019-01-23T23:05:18.034Z,-2.40
2019-01-23T23:07:46.496Z,-2.30
2019-01-23T23:10:15.794Z,-2.40
2019-01-23T23:12:44.241Z,-2.50
2019-01-23T23:15:13.136Z,-2.40
2019-01-23T23:17:41.610Z,-2.40
2019-01-23T23:20:12.172Z,-2.40
2019-01-23T23:22:40.630Z,-2.40
2019-01-23T23:25:10.438Z,-2.40
2019-01-23T23:27:39.452Z,-2.40
2019-01-23T23:30:11.217Z,-2.40
2019-01-23T23:32:39.662Z,-2.30
2019-01-23T23:35:08.398Z,-2.30
2019-01-23T23:37:36.897Z,-2.30
2019-01-23T23:40:08.658Z,-2.30
2019-01-23T23:42:37.131Z,-2.30
2019-01-23T23:45:09.230Z,-2.30
2019-01-23T23:47:37.781Z,-2.30
2019-01-23T23:50:09.342Z,-2.30
2019-01-23T23:52:37.810Z,-2.40
2019-01-23T23:55:08.114Z,-2.40
2019-01-23T23:57:36.610Z,-2.40
